Terminal Aerodrome Forecast
Issued by NWS

Home | Current Version | Previous Version | Graphics & Text | Print | Product List | Glossary On
Versions: 1 2 3 4 5 6 7 8 9 10 11 12 13 14
000
FTUS43 KTOP 190500
TAFFOE
TAF
KFOE 190520Z 1906/2006 27009KT P6SM -SHRA VCTS BKN028CB
      TEMPO 1906/1910 4SM RA BKN020
     FM191000 17003KT 2SM BR VCSH OVC050
     FM191900 32011KT P6SM VCTS OVC030CB
     FM192200 33017G28KT P6SM -SHRA VCTS OVC023CB
     FM200200 34017G29KT P6SM OVC050=

USA.gov is the U.S. government's official web portal to all federal, state and local government web resources and services.